Time;durP1;ratioP1;P1;durP2;ratioP2;P2;SDS_P1;SDS_P2;PMS_P1;PMS_P2;Temp;Humidity;BMP_temperature;BMP_pressure;BME280_temperature;BME280_humidity;BME280_pressure;Samples;Min_cycle;Max_cycle;Signal;HPM_P1;HPM_P2
2021/04/23 00:00:54;;;;;;;4.93;2.38;;;2.80;99.90;;;;;;4996846;28;20090;-74
2021/04/23 00:03:42;;;;;;;5.45;3.00;;;2.70;99.90;;;;;;4988814;28;20115;-73
2021/04/23 00:06:28;;;;;;;5.30;2.40;;;2.40;99.90;;;;;;4992387;28;20098;-74
2021/04/23 00:08:58;;;;;;;4.22;2.72;;;2.30;99.90;;;;;;4991659;28;20082;-73
2021/04/23 00:11:40;;;;;;;4.82;2.20;;;2.40;99.90;;;;;;4981556;28;20598;-74
2021/04/23 00:14:07;;;;;;;7.47;2.38;;;2.50;99.90;;;;;;4998259;28;20083;-74
2021/04/23 00:16:32;;;;;;;3.78;2.17;;;2.40;99.90;;;;;;4988013;28;20097;-74
2021/04/23 00:18:58;;;;;;;4.40;2.85;;;2.50;99.90;;;;;;5004509;28;20086;-73
2021/04/23 00:21:24;;;;;;;3.17;2.10;;;2.20;99.90;;;;;;5001890;28;20097;-74
2021/04/23 00:23:52;;;;;;;6.63;2.30;;;2.10;99.90;;;;;;4995201;28;20691;-73
2021/04/23 00:26:18;;;;;;;5.18;2.22;;;2.20;99.90;;;;;;4994429;28;20225;-74
2021/04/23 00:28:44;;;;;;;7.60;2.50;;;2.20;99.90;;;;;;4979705;28;20085;-73
2021/04/23 00:31:11;;;;;;;7.43;2.70;;;2.30;99.90;;;;;;4989022;28;20105;-73
2021/04/23 00:33:37;;;;;;;6.10;2.20;;;2.30;99.90;;;;;;4991089;28;20074;-73
2021/04/23 00:36:04;;;;;;;5.65;2.42;;;2.30;99.90;;;;;;4999538;28;20446;-73
2021/04/23 00:38:31;;;;;;;6.10;2.30;;;2.30;99.90;;;;;;4988867;28;20500;-72
2021/04/23 00:41:03;;;;;;;4.60;1.90;;;2.20;99.90;;;;;;5005748;28;20086;-73
2021/04/23 00:43:32;;;;;;;5.97;2.55;;;2.30;99.90;;;;;;4990631;28;20859;-73
2021/04/23 00:45:58;;;;;;;5.05;2.05;;;2.30;99.90;;;;;;4987449;28;20119;-73
2021/04/23 00:48:25;;;;;;;4.53;2.45;;;2.20;99.90;;;;;;4998853;28;20169;-73
2021/04/23 00:51:00;;;;;;;4.25;2.35;;;2.00;99.90;;;;;;5007378;28;20074;-73
2021/04/23 00:53:28;;;;;;;6.57;2.97;;;1.80;99.90;;;;;;4998466;28;20078;-72
2021/04/23 00:55:56;;;;;;;8.25;3.00;;;1.80;99.90;;;;;;4992683;28;20091;-73
2021/04/23 00:58:27;;;;;;;7.22;2.38;;;1.60;99.90;;;;;;5007265;28;20164;-73
2021/04/23 01:01:01;;;;;;;6.40;2.60;;;1.80;99.90;;;;;;4993114;28;20594;-73
2021/04/23 01:03:29;;;;;;;7.57;2.85;;;2.00;99.90;;;;;;4977392;28;20096;-73
2021/04/23 01:05:57;;;;;;;4.78;2.20;;;2.10;99.90;;;;;;4988443;28;20099;-73
2021/04/23 01:08:25;;;;;;;5.70;2.47;;;2.10;99.90;;;;;;4983674;28;20106;-73
2021/04/23 01:10:57;;;;;;;5.35;2.25;;;2.00;99.90;;;;;;5000738;28;20063;-73
2021/04/23 01:13:30;;;;;;;8.60;2.15;;;1.80;99.90;;;;;;4993839;28;20074;-73
2021/04/23 01:15:56;;;;;;;4.22;2.28;;;1.90;99.90;;;;;;4993223;28;20138;-73
2021/04/23 01:18:21;;;;;;;11.30;2.53;;;2.10;99.90;;;;;;5007809;28;20118;-73
2021/04/23 01:20:48;;;;;;;3.78;2.47;;;2.10;99.90;;;;;;5000935;28;20126;-73
2021/04/23 01:23:14;;;;;;;4.60;2.70;;;2.10;99.90;;;;;;5003026;28;20509;-73
2021/04/23 01:25:39;;;;;;;4.45;2.40;;;2.10;99.90;;;;;;4990468;28;20157;-73
2021/04/23 01:28:05;;;;;;;4.13;2.00;;;2.10;99.90;;;;;;4992070;28;20463;-73
2021/04/23 01:30:31;;;;;;;5.22;2.95;;;2.10;99.90;;;;;;4992498;28;20071;-73
2021/04/23 01:32:56;;;;;;;7.82;2.45;;;1.80;99.90;;;;;;4992560;28;20602;-73
2021/04/23 01:35:26;;;;;;;4.57;2.10;;;1.70;99.90;;;;;;4973824;28;20185;-73
2021/04/23 01:37:53;;;;;;;4.32;2.00;;;1.70;99.90;;;;;;4991817;28;20466;-74
2021/04/23 01:40:20;;;;;;;3.78;2.03;;;1.90;99.90;;;;;;4992302;28;20082;-73
2021/04/23 01:42:46;;;;;;;5.32;2.38;;;1.80;99.90;;;;;;4992887;28;20086;-73
2021/04/23 01:45:14;;;;;;;5.68;2.35;;;1.70;99.90;;;;;;5000419;28;20156;-73
2021/04/23 01:47:39;;;;;;;5.28;2.10;;;1.70;99.90;;;;;;4990675;28;20071;-73
2021/04/23 01:50:09;;;;;;;8.98;2.80;;;1.70;99.90;;;;;;4991549;28;20657;-73
2021/04/23 01:52:35;;;;;;;6.07;2.00;;;1.90;99.90;;;;;;4992555;28;20071;-73
2021/04/23 01:55:01;;;;;;;3.42;1.83;;;1.90;99.90;;;;;;4993603;28;20083;-73
2021/04/23 01:57:26;;;;;;;5.60;2.17;;;1.80;99.90;;;;;;4994685;28;20085;-73
2021/04/23 01:59:52;;;;;;;4.60;2.30;;;1.70;99.90;;;;;;4991454;28;20190;-73
2021/04/23 02:02:18;;;;;;;4.28;2.00;;;1.70;99.90;;;;;;4995147;28;20110;-73
2021/04/23 02:04:48;;;;;;;4.05;2.63;;;1.70;99.90;;;;;;4991787;28;20113;-73
2021/04/23 02:07:15;;;;;;;6.72;2.30;;;1.50;99.90;;;;;;4990386;28;20114;-73
2021/04/23 02:09:41;;;;;;;3.65;2.42;;;1.60;99.90;;;;;;4993821;28;20450;-73
2021/04/23 02:12:08;;;;;;;5.80;2.40;;;1.50;99.90;;;;;;4996434;28;20162;-73
2021/04/23 02:14:34;;;;;;;4.47;2.72;;;1.40;99.90;;;;;;4991997;28;20428;-73
2021/04/23 02:16:59;;;;;;;5.10;2.10;;;1.40;99.90;;;;;;4990221;28;20098;-74
2021/04/23 02:19:26;;;;;;;4.47;2.17;;;1.40;99.90;;;;;;4991402;28;20083;-73
2021/04/23 02:21:52;;;;;;;2.88;1.90;;;1.30;99.90;;;;;;4992935;28;20124;-73
2021/04/23 02:24:18;;;;;;;7.68;2.35;;;1.40;99.90;;;;;;5007924;28;20078;-73
2021/04/23 02:26:45;;;;;;;3.55;2.17;;;1.40;99.90;;;;;;4990567;28;20459;-73
2021/04/23 02:29:14;;;;;;;6.35;2.47;;;1.50;99.90;;;;;;4990912;28;20078;-73
2021/04/23 02:31:41;;;;;;;8.52;2.35;;;1.40;99.90;;;;;;4991716;28;20078;-73
2021/04/23 02:34:11;;;;;;;5.88;1.95;;;1.40;99.90;;;;;;4990104;28;20083;-73
2021/04/23 02:36:37;;;;;;;5.30;2.45;;;1.40;99.90;;;;;;4987075;28;20106;-73
2021/04/23 02:39:05;;;;;;;3.90;2.45;;;1.40;99.90;;;;;;4992557;28;20102;-73
2021/04/23 02:41:31;;;;;;;2.97;1.83;;;1.20;99.90;;;;;;4998475;28;20087;-73
2021/04/23 02:43:57;;;;;;;4.65;2.05;;;1.30;99.90;;;;;;5000029;28;20073;-73
2021/04/23 02:46:24;;;;;;;5.22;1.92;;;1.20;99.90;;;;;;5008142;28;20097;-74
2021/04/23 02:48:51;;;;;;;7.38;2.35;;;1.20;99.90;;;;;;5002288;28;20075;-73
2021/04/23 02:51:23;;;;;;;5.13;2.28;;;1.20;99.90;;;;;;4995040;28;20161;-73
2021/04/23 02:53:49;;;;;;;6.13;2.97;;;1.30;99.90;;;;;;4991533;28;20110;-73
2021/04/23 02:56:16;;;;;;;9.13;2.45;;;1.20;99.90;;;;;;4990498;28;20130;-73
2021/04/23 02:58:41;;;;;;;3.40;2.15;;;1.20;99.90;;;;;;4990438;28;20102;-74
2021/04/23 03:01:18;;;;;;;3.28;1.92;;;1.20;99.90;;;;;;4989841;28;20079;-73
2021/04/23 03:03:44;;;;;;;4.80;2.13;;;1.10;99.90;;;;;;5002498;28;20609;-73
2021/04/23 03:06:10;;;;;;;4.85;2.10;;;1.20;99.90;;;;;;4991246;28;20102;-73
2021/04/23 03:08:36;;;;;;;5.43;2.20;;;1.10;99.90;;;;;;4990048;28;20158;-75
2021/04/23 03:11:15;;;;;;;3.05;1.85;;;1.10;99.90;;;;;;4989705;28;20554;-73
2021/04/23 03:13:44;;;;;;;4.22;1.85;;;1.20;99.90;;;;;;4990145;28;20086;-73
2021/04/23 03:16:10;;;;;;;4.55;2.38;;;1.10;99.90;;;;;;5009483;28;20209;-73
2021/04/23 03:18:38;;;;;;;3.67;1.80;;;1.20;99.90;;;;;;4990385;28;20206;-73
2021/04/23 03:21:05;;;;;;;8.77;1.98;;;1.20;99.90;;;;;;4989107;28;20136;-73
2021/04/23 03:23:32;;;;;;;6.53;1.98;;;1.20;99.90;;;;;;4989279;28;20099;-73
2021/04/23 03:26:02;;;;;;;6.93;1.95;;;1.20;99.90;;;;;;4989510;28;20441;-73
2021/04/23 03:28:28;;;;;;;4.50;1.70;;;1.10;99.90;;;;;;4990371;28;20710;-73
2021/04/23 03:30:54;;;;;;;8.30;2.33;;;0.90;99.90;;;;;;4997801;28;20067;-73
2021/04/23 03:33:20;;;;;;;2.67;1.95;;;0.80;99.90;;;;;;4994286;28;20526;-73
2021/04/23 03:35:51;;;;;;;4.38;2.58;;;0.90;99.90;;;;;;4988916;28;20239;-73
2021/04/23 03:38:19;;;;;;;7.25;2.38;;;0.80;99.90;;;;;;5003043;28;20085;-74
2021/04/23 03:40:45;;;;;;;8.65;2.33;;;0.80;99.90;;;;;;4997340;28;20075;-74
2021/04/23 03:43:11;;;;;;;3.88;2.47;;;0.70;99.90;;;;;;4978785;28;20141;-73
2021/04/23 03:45:38;;;;;;;6.82;2.60;;;0.80;99.90;;;;;;4989254;28;20094;-73
2021/04/23 03:48:07;;;;;;;4.47;2.00;;;0.70;99.90;;;;;;4990503;28;20074;-73
2021/04/23 03:50:34;;;;;;;5.20;2.00;;;0.50;99.90;;;;;;4993886;28;20070;-73
2021/04/23 03:53:03;;;;;;;3.03;1.80;;;0.50;99.90;;;;;;4993172;28;20177;-73
2021/04/23 03:55:32;;;;;;;4.85;1.98;;;0.60;99.90;;;;;;4988786;28;20164;-73
2021/04/23 03:58:00;;;;;;;4.97;2.42;;;0.70;99.90;;;;;;4989386;28;20086;-73
2021/04/23 04:00:33;;;;;;;4.97;1.85;;;0.80;99.90;;;;;;4989859;28;20086;-73
2021/04/23 04:02:59;;;;;;;5.57;2.50;;;0.80;99.90;;;;;;4991651;28;20095;-73
2021/04/23 04:05:24;;;;;;;2.95;1.92;;;0.80;99.90;;;;;;5001055;28;20090;-73
2021/04/23 04:07:50;;;;;;;4.95;2.05;;;0.70;99.90;;;;;;5008172;28;20078;-73
2021/04/23 04:10:17;;;;;;;3.97;1.60;;;0.90;99.90;;;;;;4991986;28;20074;-73
2021/04/23 04:12:43;;;;;;;9.02;2.08;;;0.90;99.90;;;;;;5008188;28;20089;-73
2021/04/23 04:15:09;;;;;;;4.13;2.03;;;0.80;99.90;;;;;;5005374;28;20071;-73
2021/04/23 04:17:35;;;;;;;6.45;2.05;;;0.80;99.90;;;;;;4990373;28;20543;-73
2021/04/23 04:20:03;;;;;;;7.70;2.08;;;0.80;99.90;;;;;;4994251;28;20093;-73
2021/04/23 04:22:28;;;;;;;4.55;1.83;;;0.90;99.90;;;;;;5000187;28;20086;-73
2021/04/23 04:24:54;;;;;;;8.23;2.38;;;0.80;99.90;;;;;;5009637;28;20176;-73
2021/04/23 04:27:20;;;;;;;4.63;1.83;;;0.80;99.90;;;;;;4984343;28;20094;-73
2021/04/23 04:29:47;;;;;;;4.68;1.90;;;0.80;99.90;;;;;;4993811;28;20067;-73
2021/04/23 04:32:12;;;;;;;5.68;1.90;;;0.90;99.90;;;;;;4990650;28;20567;-73
2021/04/23 04:34:38;;;;;;;3.75;1.73;;;0.80;99.90;;;;;;4971911;28;20102;-73
2021/04/23 04:37:03;;;;;;;4.35;1.90;;;0.90;99.90;;;;;;5001437;28;20106;-73
2021/04/23 04:39:29;;;;;;;4.47;2.65;;;0.90;99.90;;;;;;4989877;28;20075;-74
2021/04/23 04:41:55;;;;;;;8.82;2.35;;;0.90;99.90;;;;;;4995384;28;20157;-73
2021/04/23 04:44:20;;;;;;;6.55;2.85;;;0.70;99.90;;;;;;4990601;28;20129;-73
2021/04/23 04:46:46;;;;;;;7.18;2.40;;;0.40;99.90;;;;;;5000863;28;20091;-73
2021/04/23 04:49:12;;;;;;;5.95;1.70;;;0.20;99.90;;;;;;4989657;28;20093;-73
2021/04/23 04:51:38;;;;;;;4.43;1.88;;;0.30;99.90;;;;;;4993688;28;20075;-73
2021/04/23 04:54:04;;;;;;;4.75;2.28;;;0.30;99.90;;;;;;4992979;28;20075;-73
2021/04/23 04:56:30;;;;;;;4.90;1.90;;;0.40;99.90;;;;;;4990200;28;20704;-73
2021/04/23 04:58:56;;;;;;;5.13;2.40;;;0.50;99.90;;;;;;4979001;28;20082;-73
2021/04/23 05:01:22;;;;;;;4.28;2.28;;;0.70;99.90;;;;;;4998424;28;20128;-73
2021/04/23 05:03:47;;;;;;;6.35;2.10;;;0.80;99.90;;;;;;4992794;28;20581;-73
2021/04/23 05:06:14;;;;;;;3.28;1.85;;;0.90;99.90;;;;;;4993284;28;20087;-73
2021/04/23 05:08:40;;;;;;;3.30;2.00;;;0.90;99.90;;;;;;5011412;28;20523;-73
2021/04/23 05:11:06;;;;;;;6.07;2.25;;;0.90;99.90;;;;;;4997026;28;20082;-73
2021/04/23 05:13:31;;;;;;;5.00;1.85;;;1.00;99.90;;;;;;5000488;28;20213;-73
2021/04/23 05:15:58;;;;;;;5.65;1.95;;;1.00;99.90;;;;;;5011653;28;20101;-73
2021/04/23 05:18:24;;;;;;;5.22;2.25;;;1.20;99.90;;;;;;5009943;28;20070;-73
2021/04/23 05:20:50;;;;;;;4.45;1.90;;;1.30;99.90;;;;;;5003597;28;20150;-73
2021/04/23 05:23:16;;;;;;;2.75;2.00;;;1.30;99.90;;;;;;4997276;28;20161;-73
2021/04/23 05:25:41;;;;;;;5.32;1.90;;;1.40;99.90;;;;;;4993562;28;20119;-73
2021/04/23 05:28:07;;;;;;;3.92;2.22;;;1.50;99.90;;;;;;4976494;28;20078;-73
2021/04/23 05:30:34;;;;;;;5.50;2.47;;;1.50;99.90;;;;;;5007369;28;20165;-73
2021/04/23 05:33:02;;;;;;;4.05;2.22;;;1.60;99.90;;;;;;4998309;28;20078;-74
2021/04/23 05:35:29;;;;;;;5.63;2.30;;;1.70;99.90;;;;;;5006100;28;20102;-75
2021/04/23 05:37:55;;;;;;;6.88;2.22;;;1.70;99.90;;;;;;4992562;28;20079;-75
2021/04/23 05:40:43;;;;;;;5.65;1.92;;;1.90;99.90;;;;;;4999814;28;20074;-75
2021/04/23 05:43:08;;;;;;;4.57;2.00;;;2.00;99.90;;;;;;4993987;28;20173;-75
2021/04/23 05:45:35;;;;;;;5.95;2.50;;;2.20;99.90;;;;;;4998668;28;20256;-76
2021/04/23 05:48:01;;;;;;;5.45;2.92;;;2.30;99.90;;;;;;5002811;28;20098;-77
2021/04/23 05:50:27;;;;;;;5.85;2.47;;;2.40;99.90;;;;;;5008900;28;20093;-74
2021/04/23 05:52:54;;;;;;;7.10;2.75;;;2.50;99.90;;;;;;5010073;28;20082;-74
2021/04/23 05:55:25;;;;;;;6.72;2.42;;;2.60;99.90;;;;;;5011580;28;20185;-73
2021/04/23 05:57:50;;;;;;;3.50;2.13;;;2.70;99.90;;;;;;4993467;28;20087;-75
2021/04/23 06:00:19;;;;;;;6.22;2.80;;;2.80;99.90;;;;;;5000223;28;20090;-74
2021/04/23 06:02:45;;;;;;;5.10;2.58;;;2.90;99.90;;;;;;5002913;28;20165;-74
2021/04/23 06:05:11;;;;;;;6.30;3.15;;;3.00;99.90;;;;;;5004708;28;20658;-73
2021/04/23 06:07:37;;;;;;;7.80;2.72;;;3.10;99.90;;;;;;4981277;28;20113;-75
2021/04/23 06:10:06;;;;;;;6.55;3.35;;;3.20;99.90;;;;;;4991239;28;20166;-74
2021/04/23 06:12:31;;;;;;;9.77;3.30;;;3.40;99.90;;;;;;4997758;28;20079;-75
2021/04/23 06:14:57;;;;;;;9.63;3.10;;;3.50;99.90;;;;;;5006061;28;20165;-74
2021/04/23 06:17:23;;;;;;;7.80;3.00;;;3.60;99.90;;;;;;4994672;28;20467;-77
2021/04/23 06:19:48;;;;;;;9.10;3.33;;;3.70;99.90;;;;;;4978508;28;20095;-76
2021/04/23 06:22:15;;;;;;;8.43;3.05;;;3.90;99.90;;;;;;4976808;28;20575;-76
2021/04/23 06:24:40;;;;;;;6.40;3.10;;;4.00;99.90;;;;;;4998568;28;20079;-76
2021/04/23 06:27:06;;;;;;;9.10;3.30;;;4.20;99.90;;;;;;5004133;28;20598;-81
2021/04/23 06:29:33;;;;;;;8.82;3.05;;;4.30;99.90;;;;;;4989977;28;20730;-80
2021/04/23 06:31:59;;;;;;;7.72;2.65;;;4.50;99.90;;;;;;4985882;28;20094;-78
2021/04/23 06:34:25;;;;;;;12.30;2.97;;;4.60;99.90;;;;;;4995973;28;20074;-79
2021/04/23 06:36:50;;;;;;;5.55;2.85;;;4.70;99.90;;;;;;4988424;28;20115;-77
2021/04/23 06:39:18;;;;;;;9.40;3.47;;;4.90;99.90;;;;;;4993065;28;20503;-75
2021/04/23 06:41:45;;;;;;;8.25;2.47;;;5.10;99.90;;;;;;4992863;28;20134;-79
2021/04/23 06:44:12;;;;;;;4.57;2.63;;;5.30;99.90;;;;;;4988692;28;20098;-81
2021/04/23 06:46:38;;;;;;;6.57;3.10;;;5.40;99.90;;;;;;4987677;28;20090;-76
2021/04/23 06:49:04;;;;;;;6.20;2.75;;;5.60;99.90;;;;;;4990865;28;20085;-75
2021/04/23 06:51:30;;;;;;;7.85;3.50;;;5.80;99.90;;;;;;4989445;28;20080;-74
2021/04/23 06:53:56;;;;;;;8.60;3.00;;;6.10;99.90;;;;;;4991961;28;20082;-79
2021/04/23 06:56:21;;;;;;;8.82;3.35;;;6.00;99.90;;;;;;4991759;28;20094;-76
2021/04/23 06:58:47;;;;;;;7.80;3.15;;;6.20;99.90;;;;;;4989980;28;20086;-76
2021/04/23 07:01:14;;;;;;;7.60;4.07;;;6.30;99.90;;;;;;4997548;28;20083;-75
2021/04/23 07:03:41;;;;;;;6.90;3.53;;;6.40;99.90;;;;;;4994430;28;20091;-73
2021/04/23 07:06:08;;;;;;;8.85;3.33;;;6.60;99.90;;;;;;4985601;28;20087;-76
2021/04/23 07:08:34;;;;;;;11.27;4.55;;;6.60;99.90;;;;;;4992221;28;20105;-75
2021/04/23 07:11:00;;;;;;;9.90;3.35;;;6.70;99.90;;;;;;4995333;28;20141;-75
2021/04/23 07:13:26;;;;;;;12.05;3.30;;;6.80;99.90;;;;;;4989623;28;20499;-74
2021/04/23 07:15:52;;;;;;;7.45;2.50;;;6.80;99.90;;;;;;5008846;28;20097;-76
2021/04/23 07:18:18;;;;;;;8.95;3.53;;;6.90;99.90;;;;;;5002184;28;20074;-77
2021/04/23 07:20:44;;;;;;;9.95;3.20;;;6.90;99.90;;;;;;4989873;28;20082;-75
2021/04/23 07:23:09;;;;;;;6.93;3.17;;;7.00;99.90;;;;;;4988089;28;20571;-75
2021/04/23 07:25:36;;;;;;;7.68;3.38;;;7.10;99.90;;;;;;4998402;28;20224;-75
2021/04/23 07:28:02;;;;;;;5.38;2.47;;;7.10;99.90;;;;;;4991765;28;20087;-75
2021/04/23 07:30:30;;;;;;;8.05;3.25;;;7.20;99.90;;;;;;4981929;28;20074;-77
2021/04/23 07:32:58;;;;;;;10.45;4.28;;;7.20;99.90;;;;;;4990453;28;20109;-76
2021/04/23 07:35:24;;;;;;;7.65;3.22;;;7.30;99.90;;;;;;4993079;28;20587;-76
2021/04/23 07:37:50;;;;;;;8.45;3.03;;;7.30;99.90;;;;;;5004344;28;20082;-76
2021/04/23 07:40:18;;;;;;;8.23;3.22;;;7.40;99.90;;;;;;4991570;28;20137;-76
2021/04/23 07:42:44;;;;;;;5.85;3.25;;;7.50;99.50;;;;;;4998540;28;20174;-76
2021/04/23 07:45:11;;;;;;;6.53;3.50;;;7.50;98.70;;;;;;4987608;28;20232;-75
2021/04/23 07:47:37;;;;;;;9.13;2.47;;;7.60;97.50;;;;;;5008706;28;20070;-76
2021/04/23 07:50:05;;;;;;;5.97;3.03;;;7.70;95.00;;;;;;5010461;28;20075;-76
2021/04/23 07:52:31;;;;;;;7.10;2.80;;;7.70;95.00;;;;;;4997457;28;20091;-76
2021/04/23 07:54:57;;;;;;;8.48;2.58;;;7.70;96.80;;;;;;4985241;28;20070;-76
2021/04/23 07:57:24;;;;;;;6.22;3.28;;;7.70;98.20;;;;;;5008577;28;20465;-78
2021/04/23 07:59:50;;;;;;;10.50;2.92;;;7.80;98.40;;;;;;5005831;28;20120;-78
2021/04/23 08:02:17;;;;;;;9.07;3.05;;;7.80;97.40;;;;;;5011685;28;20094;-76
2021/04/23 08:04:42;;;;;;;8.77;3.65;;;7.90;97.00;;;;;;5007456;28;20228;-75
2021/04/23 08:07:10;;;;;;;9.23;3.47;;;7.90;97.20;;;;;;4995643;28;20111;-79
2021/04/23 08:09:36;;;;;;;6.28;2.50;;;8.00;97.40;;;;;;4993167;28;20411;-79
2021/04/23 08:12:03;;;;;;;14.82;6.80;;;8.10;97.60;;;;;;5004267;28;20440;-75
2021/04/23 08:14:29;;;;;;;6.20;2.78;;;8.20;97.80;;;;;;4991992;28;20602;-75
2021/04/23 08:16:54;;;;;;;8.48;3.60;;;8.30;96.70;;;;;;4995053;28;20098;-76
2021/04/23 08:19:20;;;;;;;5.72;2.50;;;8.30;96.50;;;;;;4978499;28;20869;-75
2021/04/23 08:21:46;;;;;;;4.78;2.60;;;8.40;96.90;;;;;;4996051;28;20078;-75
2021/04/23 08:24:12;;;;;;;6.35;2.83;;;8.40;96.90;;;;;;5001395;28;20177;-74
2021/04/23 08:26:38;;;;;;;8.00;2.90;;;8.40;96.10;;;;;;4985146;28;20590;-75
2021/04/23 08:29:05;;;;;;;9.32;3.50;;;8.50;97.00;;;;;;4992842;28;20074;-76
2021/04/23 08:31:30;;;;;;;6.30;2.85;;;8.60;96.30;;;;;;4989862;28;20438;-78
2021/04/23 08:33:56;;;;;;;8.98;2.47;;;8.80;95.50;;;;;;4987708;28;20240;-74
2021/04/23 08:36:21;;;;;;;8.60;2.90;;;8.70;95.10;;;;;;4993788;28;20160;-77
2021/04/23 08:38:47;;;;;;;10.85;2.97;;;8.80;95.50;;;;;;4988812;28;20085;-77
2021/04/23 08:41:13;;;;;;;10.55;2.47;;;8.80;94.90;;;;;;4997088;28;20098;-76
2021/04/23 08:43:38;;;;;;;10.40;2.75;;;9.00;94.60;;;;;;5002445;28;20094;-75
2021/04/23 08:46:05;;;;;;;11.07;3.47;;;9.00;94.90;;;;;;4994117;28;20559;-76
2021/04/23 08:48:33;;;;;;;8.02;2.50;;;9.20;92.60;;;;;;4989815;28;20074;-75
2021/04/23 08:50:59;;;;;;;6.55;3.47;;;9.30;92.80;;;;;;4983869;28;20531;-75
2021/04/23 08:53:27;;;;;;;11.27;3.35;;;9.30;92.60;;;;;;5001713;28;20067;-75
2021/04/23 08:55:54;;;;;;;8.07;2.88;;;9.30;92.30;;;;;;4998535;28;20149;-75
2021/04/23 08:58:20;;;;;;;9.02;3.42;;;9.30;93.10;;;;;;4996234;28;20149;-75
2021/04/23 09:00:46;;;;;;;6.43;2.97;;;9.70;94.50;;;;;;4990925;28;20153;-76
2021/04/23 09:03:15;;;;;;;10.05;3.47;;;9.60;93.00;;;;;;4993902;28;20185;-76
2021/04/23 09:05:41;;;;;;;7.30;3.25;;;9.60;91.60;;;;;;5001518;28;20174;-76
2021/04/23 09:08:14;;;;;;;10.77;3.85;;;9.60;91.80;;;;;;4973304;28;20079;-76
2021/04/23 09:10:40;;;;;;;5.82;2.88;;;9.60;91.50;;;;;;4992478;28;20539;-77
2021/04/23 09:13:14;;;;;;;10.43;3.95;;;9.70;91.40;;;;;;4979624;28;20078;-78
2021/04/23 09:15:43;;;;;;;11.73;4.40;;;9.60;91.50;;;;;;4978783;28;20129;-78
2021/04/23 09:18:13;;;;;;;6.85;3.63;;;9.80;92.00;;;;;;4990375;28;20169;-78
2021/04/23 09:20:42;;;;;;;8.63;3.90;;;9.80;92.40;;;;;;4993702;28;20079;-78
2021/04/23 09:23:18;;;;;;;10.32;3.40;;;9.80;91.50;;;;;;4989105;28;20587;-77
2021/04/23 09:25:51;;;;;;;12.10;3.63;;;9.80;91.50;;;;;;4994306;28;20094;-76
2021/04/23 09:28:36;;;;;;;7.07;3.55;;;9.90;89.90;;;;;;4987699;28;20145;-75
2021/04/23 09:31:25;;;;;;;9.27;3.25;;;9.90;88.30;;;;;;4972824;28;20446;-77
2021/04/23 09:33:57;;;;;;;7.80;3.20;;;10.00;89.10;;;;;;4998192;28;20079;-75
2021/04/23 09:36:31;;;;;;;8.98;3.20;;;10.10;90.50;;;;;;5006614;28;20125;-75
2021/04/23 09:39:22;;;;;;;6.45;3.42;;;10.00;90.60;;;;;;5004421;28;20097;-76
2021/04/23 09:41:57;;;;;;;10.63;4.38;;;10.00;91.00;;;;;;4980174;28;20085;-77
2021/04/23 09:44:37;;;;;;;11.40;2.95;;;10.10;90.20;;;;;;4985410;28;20113;-77
2021/04/23 09:47:13;;;;;;;10.73;4.40;;;10.10;88.90;;;;;;4983531;28;20518;-78
2021/04/23 09:49:40;;;;;;;11.75;3.55;;;10.10;90.00;;;;;;4989833;28;20089;-77
2021/04/23 09:52:08;;;;;;;8.73;3.60;;;10.20;89.70;;;;;;4996084;28;20074;-77
2021/04/23 09:54:35;;;;;;;7.72;4.13;;;10.20;90.30;;;;;;4989383;28;20171;-77
2021/04/23 09:57:10;;;;;;;14.45;3.60;;;10.30;89.70;;;;;;4977192;28;20113;-77
2021/04/23 09:59:38;;;;;;;11.55;3.70;;;10.30;88.20;;;;;;4992761;28;20079;-76
2021/04/23 10:02:04;;;;;;;6.60;3.58;;;10.20;89.20;;;;;;4977768;28;20081;-76
2021/04/23 10:04:35;;;;;;;8.15;3.63;;;10.40;90.10;;;;;;4997415;28;21131;-78
2021/04/23 10:07:15;;;;;;;5.25;3.17;;;10.50;89.30;;;;;;5008331;28;20087;-75
2021/04/23 10:10:01;;;;;;;9.35;3.53;;;10.50;89.00;;;;;;4994737;28;20074;-80
2021/04/23 10:12:53;;;;;;;10.70;3.92;;;10.60;90.50;;;;;;4985020;28;20074;-78
2021/04/23 10:15:25;;;;;;;13.95;3.90;;;10.80;88.60;;;;;;5005414;28;20089;-78
2021/04/23 10:18:02;;;;;;;6.43;3.95;;;10.80;83.80;;;;;;5006224;28;20087;-79
2021/04/23 10:20:37;;;;;;;9.23;3.28;;;10.80;84.60;;;;;;4995080;28;20657;-78
2021/04/23 10:23:05;;;;;;;12.90;3.83;;;10.80;84.90;;;;;;5007191;28;20094;-78
2021/04/23 10:25:36;;;;;;;10.88;3.92;;;10.70;82.90;;;;;;5002910;28;20140;-78
2021/04/23 10:28:10;;;;;;;10.27;3.53;;;10.70;83.50;;;;;;5001517;28;20105;-79
2021/04/23 10:30:42;;;;;;;7.28;3.38;;;10.70;84.40;;;;;;5004353;28;20104;-76
2021/04/23 10:33:20;;;;;;;10.85;3.78;;;10.80;86.60;;;;;;5002493;28;20082;-78
2021/04/23 10:35:51;;;;;;;10.20;3.95;;;11.00;85.30;;;;;;4987986;28;20103;-76
2021/04/23 10:38:24;;;;;;;9.23;4.07;;;11.00;84.20;;;;;;5005787;28;20071;-79
2021/04/23 10:41:10;;;;;;;12.63;3.30;;;11.00;84.00;;;;;;5002267;28;20067;-77
2021/04/23 10:43:48;;;;;;;10.90;3.78;;;10.90;85.70;;;;;;5001605;28;20103;-79
2021/04/23 10:46:15;;;;;;;8.75;4.07;;;11.00;84.00;;;;;;4991333;28;20097;-80
2021/04/23 10:48:45;;;;;;;9.18;3.58;;;11.10;90.90;;;;;;5010778;28;20726;-79
2021/04/23 10:51:20;;;;;;;9.20;3.90;;;11.50;85.50;;;;;;4992251;28;20173;-79
2021/04/23 10:53:47;;;;;;;;;;;11.30;78.70;;;;;;4993688;28;20113;-80
2021/04/23 10:56:27;;;;;;;8.80;3.15;;;11.40;85.00;;;;;;4994960;28;20516;-77
2021/04/23 10:58:53;;;;;;;9.75;4.00;;;11.40;74.90;;;;;;4998455;28;20567;-78
2021/04/23 11:01:21;;;;;;;9.02;3.83;;;11.20;80.60;;;;;;4988112;28;20101;-77
2021/04/23 11:04:25;;;;;;;7.50;3.28;;;11.50;79.80;;;;;;4993623;28;20513;-75
2021/04/23 11:06:54;;;;;;;10.55;4.30;;;11.80;81.30;;;;;;4948956;28;20107;-77
2021/04/23 11:09:23;;;;;;;11.85;4.45;;;11.80;76.00;;;;;;4950399;29;20111;-78
2021/04/23 11:12:25;;;;;;;5.53;2.83;;;12.10;83.10;;;;;;4970551;28;20462;-77
2021/04/23 11:14:51;;;;;;;9.57;3.40;;;12.00;74.40;;;;;;4930232;29;20102;-77
2021/04/23 11:17:17;;;;;;;7.13;3.45;;;12.00;75.00;;;;;;4990828;28;20558;-76
2021/04/23 11:19:43;;;;;;;8.40;3.22;;;12.00;79.10;;;;;;5018152;28;20128;-77
2021/04/23 11:22:12;;;;;;;9.30;4.35;;;12.00;73.50;;;;;;5007585;28;20078;-77
2021/04/23 11:24:39;;;;;;;8.70;3.58;;;11.80;68.40;;;;;;5005295;28;20071;-77
2021/04/23 11:27:07;;;;;;;9.85;4.07;;;11.70;70.30;;;;;;5003335;28;20094;-76
2021/04/23 11:29:42;;;;;;;8.27;3.47;;;11.80;71.50;;;;;;4997361;28;20177;-76
2021/04/23 11:32:17;;;;;;;9.88;3.88;;;11.80;70.60;;;;;;5002789;28;20622;-77
2021/04/23 11:35:09;;;;;;;9.27;3.65;;;11.90;72.70;;;;;;5008021;28;20078;-77
2021/04/23 11:37:40;;;;;;;7.22;3.33;;;11.90;67.80;;;;;;4994725;28;20108;-77
2021/04/23 11:40:26;;;;;;;5.22;3.40;;;11.80;66.00;;;;;;4999909;28;20137;-77
2021/04/23 11:42:56;;;;;;;6.95;3.80;;;12.00;76.30;;;;;;4993515;28;20101;-76
2021/04/23 11:45:27;;;;;;;8.93;3.38;;;12.10;70.50;;;;;;5002054;28;20165;-76
2021/04/23 11:47:57;;;;;;;6.22;3.42;;;11.90;68.80;;;;;;5004136;28;20491;-76
2021/04/23 11:50:25;;;;;;;7.55;3.97;;;11.90;69.20;;;;;;4990610;28;20075;-76
2021/04/23 11:52:53;;;;;;;8.85;3.53;;;12.00;69.60;;;;;;4976172;28;20093;-76
2021/04/23 11:55:27;;;;;;;8.95;3.20;;;12.10;75.00;;;;;;5009010;28;20070;-76
2021/04/23 11:58:10;;;;;;;14.40;4.05;;;12.80;81.60;;;;;;4989393;28;20085;-76
2021/04/23 12:00:40;;;;;;;8.20;4.18;;;12.60;77.30;;;;;;5008963;28;20079;-76
2021/04/23 12:03:14;;;;;;;7.35;3.42;;;12.80;72.00;;;;;;4998602;28;20099;-77
2021/04/23 12:05:42;;;;;;;8.55;3.70;;;13.10;68.50;;;;;;4999561;28;20091;-77
2021/04/23 12:08:22;;;;;;;8.32;4.05;;;13.20;77.50;;;;;;5001940;28;20125;-76
2021/04/23 12:10:53;;;;;;;6.80;3.70;;;13.10;76.50;;;;;;4999065;28;20174;-77
2021/04/23 12:13:30;;;;;;;7.00;3.53;;;13.30;72.40;;;;;;5001384;28;20070;-78
2021/04/23 12:15:58;;;;;;;9.88;3.55;;;13.20;69.30;;;;;;4999528;28;20652;-77
2021/04/23 12:18:25;;;;;;;8.18;3.55;;;13.00;62.90;;;;;;4989290;28;20125;-76
2021/04/23 12:20:53;;;;;;;7.75;3.60;;;13.20;68.30;;;;;;4990899;28;20431;-76
2021/04/23 12:23:24;;;;;;;9.30;3.20;;;12.90;58.30;;;;;;4996495;28;20173;-76
2021/04/23 12:26:08;;;;;;;6.65;3.50;;;13.00;66.30;;;;;;4995765;28;20152;-76
2021/04/23 12:28:43;;;;;;;6.22;2.95;;;12.90;57.40;;;;;;4990306;28;20145;-77
2021/04/23 12:31:20;;;;;;;8.07;3.97;;;12.70;57.70;;;;;;4999428;28;20135;-76
2021/04/23 12:34:10;;;;;;;9.63;4.53;;;12.60;57.20;;;;;;4999446;28;20081;-76
2021/04/23 12:36:42;;;;;;;9.93;3.25;;;12.50;59.60;;;;;;4994943;28;20562;-76
2021/04/23 12:39:19;;;;;;;10.45;4.20;;;12.60;56.70;;;;;;4985266;28;20110;-77
2021/04/23 12:41:54;;;;;;;6.53;4.70;;;12.80;57.90;;;;;;4974768;28;20098;-77
2021/04/23 12:44:25;;;;;;;9.00;3.85;;;12.90;65.40;;;;;;5000278;28;20098;-77
2021/04/23 12:46:56;;;;;;;8.20;3.70;;;12.90;62.40;;;;;;5004367;28;20183;-76
2021/04/23 12:49:30;;;;;;;6.03;3.03;;;12.90;64.50;;;;;;4987748;28;20075;-77
2021/04/23 12:52:07;;;;;;;8.27;4.07;;;12.90;57.40;;;;;;4995863;28;20063;-78
2021/04/23 12:54:37;;;;;;;5.35;3.70;;;13.00;60.70;;;;;;5004587;28;20089;-78
2021/04/23 12:57:10;;;;;;;7.88;4.28;;;13.00;58.70;;;;;;5002524;28;20091;-80
2021/04/23 12:59:51;;;;;;;14.45;4.18;;;12.90;59.30;;;;;;4992167;28;20066;-77
2021/04/23 13:02:23;;;;;;;7.20;3.72;;;12.90;58.40;;;;;;5009409;28;20850;-78